createdAt,value
2023-10-06T04:03:44.732Z,100.00
2023-10-06T04:07:57.652Z,100.00
2023-10-06T04:12:09.283Z,100.00
2023-10-06T04:16:20.943Z,100.00
2023-10-06T04:20:34.415Z,100.00
2023-10-06T04:24:46.008Z,100.00
2023-10-06T04:29:00.388Z,100.00
2023-10-06T04:33:14.881Z,100.00
2023-10-06T04:37:27.198Z,100.00
2023-10-06T04:41:38.838Z,100.00
2023-10-06T04:45:51.444Z,100.00
2023-10-06T04:50:03.131Z,100.00
2023-10-06T04:54:14.856Z,100.00
2023-10-06T04:58:26.404Z,100.00
2023-10-06T05:02:39.551Z,100.00
2023-10-06T05:06:54.303Z,100.00
2023-10-06T05:11:09.594Z,100.00
2023-10-06T05:15:27.313Z,100.00
2023-10-06T05:19:40.057Z,100.00
2023-10-06T05:23:51.661Z,100.00
2023-10-06T05:28:04.461Z,100.00
2023-10-06T05:32:16.055Z,100.00
2023-10-06T05:36:27.631Z,100.00
2023-10-06T05:40:39.182Z,100.00
2023-10-06T05:44:50.733Z,100.00
2023-10-06T05:49:04.591Z,100.00
2023-10-06T05:53:24.213Z,100.00
2023-10-06T05:57:38.592Z,100.00
2023-10-06T06:02:01.644Z,100.00
2023-10-06T06:06:15.882Z,100.00
2023-10-06T06:10:30.758Z,100.00
2023-10-06T06:14:45.510Z,100.00
2023-10-06T06:18:57.535Z,100.00
2023-10-06T06:23:10.820Z,100.00
2023-10-06T06:27:23.803Z,100.00
2023-10-06T06:31:36.041Z,100.00
2023-10-06T06:35:47.717Z,100.00
2023-10-06T06:39:59.339Z,100.00
2023-10-06T06:44:11.440Z,100.00
2023-10-06T06:48:23.046Z,100.00
2023-10-06T06:52:35.525Z,100.00
2023-10-06T06:56:48.523Z,100.00
2023-10-06T07:01:00.166Z,100.00
2023-10-06T07:05:13.390Z,100.00
2023-10-06T07:09:24.996Z,100.00
2023-10-06T07:13:37.465Z,100.00
2023-10-06T07:17:55.302Z,100.00
2023-10-06T07:22:07.325Z,100.00
2023-10-06T07:26:19.007Z,100.00
2023-10-06T07:30:35.450Z,100.00
2023-10-06T07:34:47.378Z,100.00
2023-10-06T07:38:59.670Z,100.00
2023-10-06T07:43:11.936Z,100.00
2023-10-06T07:47:25.611Z,100.00
2023-10-06T07:51:37.256Z,100.00
2023-10-06T07:55:49.980Z,100.00
2023-10-06T08:00:06.387Z,100.00
2023-10-06T08:04:24.263Z,100.00
2023-10-06T08:08:36.519Z,100.00
2023-10-06T08:12:51.136Z,100.00
2023-10-06T08:17:02.781Z,100.00
2023-10-06T08:21:14.429Z,100.00
2023-10-06T08:25:26.681Z,100.00
2023-10-06T08:29:39.584Z,100.00
2023-10-06T08:33:51.227Z,100.00
2023-10-06T08:38:03.229Z,100.00
2023-10-06T08:42:16.692Z,100.00
2023-10-06T08:46:29.046Z,100.00
2023-10-06T08:50:44.683Z,100.00
2023-10-06T08:54:58.056Z,100.00
2023-10-06T08:59:09.864Z,100.00
2023-10-06T09:03:21.811Z,100.00
2023-10-06T09:07:34.126Z,100.00
2023-10-06T09:11:45.669Z,100.00
2023-10-06T09:15:57.213Z,100.00
2023-10-06T09:20:20.258Z,100.00
2023-10-06T09:24:40.224Z,100.00
2023-10-06T09:28:57.155Z,100.00
2023-10-06T09:33:09.600Z,100.00
2023-10-06T09:37:21.858Z,100.00
2023-10-06T09:41:34.675Z,100.00
2023-10-06T09:45:48.276Z,100.00
2023-10-06T09:50:02.208Z,100.00
2023-10-06T09:54:15.524Z,100.00
2023-10-06T09:58:27.872Z,100.00
2023-10-06T10:02:41.733Z,100.00
2023-10-06T10:06:55.050Z,100.00
2023-10-06T10:11:15.668Z,100.00
2023-10-06T10:15:53.776Z,100.00
2023-10-06T10:20:10.392Z,100.00
2023-10-06T10:28:38.150Z,100.00
2023-10-06T10:32:53.639Z,100.00
2023-10-06T10:37:07.315Z,100.00
2023-10-06T10:45:36.120Z,100.00
2023-10-06T10:49:48.688Z,100.00
2023-10-06T10:54:00.987Z,100.00
2023-10-06T10:58:32.501Z,100.00
2023-10-06T11:02:50.877Z,100.00
2023-10-06T11:07:16.539Z,100.00
2023-10-06T11:11:29.201Z,100.00
2023-10-06T11:15:41.266Z,97.58
2023-10-06T11:20:27.343Z,91.26
2023-10-06T11:24:41.759Z,92.93
2023-10-06T11:28:53.357Z,87.39
2023-10-06T11:33:06.850Z,88.91
2023-10-06T11:37:26.426Z,85.13
2023-10-06T11:41:38.973Z,85.63
2023-10-06T11:46:03.309Z,83.42
2023-10-06T11:50:26.449Z,82.14
2023-10-06T11:54:40.265Z,78.09
2023-10-06T11:58:51.880Z,77.58
2023-10-06T12:03:03.851Z,74.88
2023-10-06T12:07:22.633Z,70.27
2023-10-06T12:11:34.578Z,73.51
2023-10-06T12:15:47.393Z,73.69
2023-10-06T12:20:00.381Z,73.04
2023-10-06T12:24:13.332Z,72.21
2023-10-06T12:28:26.991Z,71.61
2023-10-06T12:32:38.732Z,72.02
2023-10-06T12:36:52.947Z,73.32
2023-10-06T12:41:08.188Z,72.18
2023-10-06T12:45:20.230Z,73.26
2023-10-06T12:49:32.187Z,73.07
2023-10-06T12:53:43.860Z,73.92
2023-10-06T12:57:55.429Z,73.28
2023-10-06T13:02:07.072Z,71.66
2023-10-06T13:06:18.645Z,69.69
2023-10-06T13:10:30.286Z,70.41
2023-10-06T13:14:43.690Z,68.63
2023-10-06T13:18:55.396Z,69.10
2023-10-06T13:23:07.011Z,69.76
2023-10-06T13:27:18.626Z,70.99
2023-10-06T13:31:30.194Z,71.50
2023-10-06T13:35:42.928Z,72.17
2023-10-06T13:39:54.617Z,72.61
2023-10-06T13:44:06.252Z,74.14
2023-10-06T13:48:23.638Z,75.01
2023-10-06T13:52:36.474Z,73.45
2023-10-06T13:56:48.031Z,73.90
2023-10-06T14:00:59.932Z,75.09
2023-10-06T14:05:13.109Z,73.34
2023-10-06T14:09:25.011Z,74.71
2023-10-06T14:13:36.646Z,74.87
2023-10-06T14:17:48.458Z,75.02
2023-10-06T14:22:00.090Z,74.06
2023-10-06T14:26:12.348Z,75.10
2023-10-06T14:30:26.655Z,75.67
2023-10-06T14:34:59.567Z,76.65
2023-10-06T14:39:29.881Z,77.69
2023-10-06T14:44:01.185Z,78.52
2023-10-06T14:48:14.965Z,78.29
2023-10-06T14:52:32.437Z,79.46
2023-10-06T14:56:45.092Z,78.69
2023-10-06T15:01:02.960Z,78.79
2023-10-06T15:05:16.339Z,80.15
2023-10-06T15:09:28.295Z,81.43
2023-10-06T15:13:40.541Z,82.93
2023-10-06T15:18:08.895Z,83.44
2023-10-06T15:22:27.725Z,85.51
2023-10-06T15:26:44.155Z,87.14
2023-10-06T15:30:58.577Z,87.41
2023-10-06T15:35:11.136Z,87.67
2023-10-06T15:39:23.890Z,87.81
2023-10-06T15:43:39.528Z,88.42
2023-10-06T15:47:51.395Z,88.17
2023-10-06T15:52:03.932Z,88.09
2023-10-06T15:56:15.905Z,89.38
2023-10-06T16:00:27.970Z,90.62
2023-10-06T16:04:40.228Z,92.91
2023-10-06T16:08:53.568Z,98.43
2023-10-06T16:13:05.338Z,99.88
2023-10-06T16:17:17.021Z,100.00
2023-10-06T16:21:29.617Z,100.00
2023-10-06T16:25:42.184Z,100.00
2023-10-06T16:29:53.844Z,100.00
2023-10-06T16:34:05.410Z,100.00
2023-10-06T16:38:17.015Z,100.00
2023-10-06T16:42:29.902Z,100.00
2023-10-06T16:46:42.138Z,100.00
2023-10-06T16:50:54.853Z,100.00
2023-10-06T16:55:07.410Z,100.00
2023-10-06T16:59:19.061Z,100.00
2023-10-06T17:03:33.419Z,100.00
2023-10-06T17:07:47.949Z,100.00
2023-10-06T17:12:02.044Z,100.00
2023-10-06T17:16:14.986Z,100.00
2023-10-06T17:20:27.022Z,100.00
2023-10-06T17:24:38.838Z,100.00
2023-10-06T17:28:50.426Z,100.00
2023-10-06T17:33:02.217Z,100.00
2023-10-06T17:37:30.364Z,100.00
2023-10-06T17:41:42.575Z,100.00
2023-10-06T17:45:55.706Z,100.00
2023-10-06T17:50:08.235Z,100.00
2023-10-06T17:54:19.883Z,100.00
2023-10-06T17:58:31.532Z,100.00
2023-10-06T18:02:44.016Z,100.00
2023-10-06T18:06:55.698Z,100.00
2023-10-06T18:11:07.292Z,100.00
2023-10-06T18:15:19.675Z,100.00
2023-10-06T18:19:31.592Z,100.00
2023-10-06T18:23:43.364Z,100.00
2023-10-06T18:27:54.934Z,100.00
2023-10-06T18:32:06.671Z,100.00
2023-10-06T18:36:18.516Z,100.00
2023-10-06T18:40:30.496Z,100.00
2023-10-06T18:44:42.051Z,100.00
2023-10-06T18:48:53.694Z,100.00
2023-10-06T18:53:05.275Z,100.00
2023-10-06T18:57:16.834Z,100.00
2023-10-06T19:01:29.345Z,100.00
2023-10-06T19:05:44.445Z,100.00
2023-10-06T19:09:56.049Z,100.00
2023-10-06T19:14:07.626Z,100.00
2023-10-06T19:18:19.357Z,100.00
2023-10-06T19:22:30.950Z,100.00
2023-10-06T19:26:42.561Z,100.00
2023-10-06T19:30:57.676Z,100.00
2023-10-06T19:35:09.550Z,100.00
2023-10-06T19:39:21.148Z,100.00
2023-10-06T19:43:33.990Z,100.00
2023-10-06T19:47:45.982Z,100.00
2023-10-06T19:51:58.566Z,100.00
2023-10-06T19:56:10.168Z,100.00
2023-10-06T20:00:27.186Z,100.00
2023-10-06T20:04:41.391Z,100.00
2023-10-06T20:08:53.763Z,100.00
2023-10-06T20:13:08.696Z,100.00
2023-10-06T20:17:21.444Z,100.00
2023-10-06T20:21:33.290Z,100.00
2023-10-06T20:25:46.004Z,100.00
2023-10-06T20:29:57.594Z,100.00
2023-10-06T20:34:09.270Z,100.00
2023-10-06T20:38:21.509Z,100.00
2023-10-06T20:42:33.109Z,100.00
2023-10-06T20:46:44.969Z,100.00
2023-10-06T20:50:56.740Z,100.00
2023-10-06T20:55:08.798Z,100.00
2023-10-06T20:59:20.438Z,100.00
2023-10-06T21:03:32.696Z,100.00
2023-10-06T21:07:45.189Z,100.00
2023-10-06T21:11:57.074Z,100.00
2023-10-06T21:16:08.656Z,100.00
2023-10-06T21:20:20.653Z,100.00
2023-10-06T21:24:32.687Z,100.00
2023-10-06T21:28:44.301Z,100.00
